Time;durP1;ratioP1;P1;durP2;ratioP2;P2;SDS_P1;SDS_P2;PMS_P1;PMS_P2;Temp;Humidity;BMP_temperature;BMP_pressure;BME280_temperature;BME280_humidity;BME280_pressure;Samples;Min_cycle;Max_cycle;Signal;HPM_P1;HPM_P2
2024/02/23 00:03:02;;;;;;;10.60;7.80;;;;;;;8.57;76.98;98050.25;130321;1259;107127;-77
2024/02/23 00:06:08;;;;;;;10.70;7.20;;;;;;;8.54;77.02;98048.15;130295;1263;106915;-77
2024/02/23 00:09:14;;;;;;;8.70;5.90;;;;;;;8.52;77.10;98040.48;130531;1265;107501;-77
2024/02/23 00:12:20;;;;;;;9.00;6.60;;;;;;;8.54;77.08;98045.94;130300;1263;107800;-78
2024/02/23 00:15:25;;;;;;;9.50;7.20;;;;;;;8.59;76.81;98041.55;130329;1259;106560;-78
2024/02/23 00:18:31;;;;;;;8.90;6.50;;;;;;;8.63;76.96;98039.74;130532;1259;107266;-78
2024/02/23 00:21:37;;;;;;;9.30;6.70;;;;;;;8.68;76.92;98039.07;130284;1259;108646;-77
2024/02/23 00:24:42;;;;;;;9.60;7.00;;;;;;;8.69;76.89;98031.64;130324;1259;107606;-80
2024/02/23 00:27:48;;;;;;;9.40;6.80;;;;;;;8.68;76.71;98027.14;130518;1263;107733;-77
2024/02/23 00:30:53;;;;;;;9.50;6.90;;;;;;;8.67;76.78;98022.39;130309;1264;108742;-78
2024/02/23 00:33:59;;;;;;;9.50;6.70;;;;;;;8.64;76.77;98018.03;130282;1261;108738;-79
2024/02/23 00:37:05;;;;;;;10.30;7.00;;;;;;;8.62;77.00;98020.20;130315;1264;108646;-79
2024/02/23 00:40:13;;;;;;;10.30;6.90;;;;;;;8.61;77.01;98010.98;130316;1264;108402;-79
2024/02/23 00:43:19;;;;;;;9.00;6.50;;;;;;;8.59;76.92;98003.77;130381;1263;107818;-78
2024/02/23 00:46:25;;;;;;;8.50;5.70;;;;;;;8.57;76.89;98007.61;130328;1273;107625;-78
2024/02/23 00:49:30;;;;;;;8.90;5.70;;;;;;;8.56;76.93;98004.61;130306;1259;107607;-77
2024/02/23 00:52:36;;;;;;;7.60;6.00;;;;;;;8.57;77.12;98002.16;130356;1265;107687;-77
2024/02/23 00:55:41;;;;;;;7.20;5.90;;;;;;;8.60;76.99;98000.75;130327;1262;106912;-78
2024/02/23 00:58:47;;;;;;;9.30;6.40;;;;;;;8.66;76.91;97997.05;130338;1263;107480;-77
2024/02/23 01:01:53;;;;;;;8.50;6.20;;;;;;;8.69;76.97;97998.99;130337;1260;106617;-78
2024/02/23 01:04:58;;;;;;;9.70;6.60;;;;;;;8.70;77.11;97995.45;130337;1259;107344;-78
2024/02/23 01:08:04;;;;;;;8.40;6.20;;;;;;;8.72;77.11;97989.96;130486;1262;107575;-77
2024/02/23 01:11:10;;;;;;;8.50;6.50;;;;;;;8.72;76.96;97986.04;130328;1264;108598;-77
2024/02/23 01:14:15;;;;;;;7.80;6.30;;;;;;;8.70;76.87;97985.26;130352;1263;107410;-77
2024/02/23 01:17:21;;;;;;;8.90;6.40;;;;;;;8.68;77.10;97982.72;130310;1260;108417;-77
2024/02/23 01:20:26;;;;;;;9.80;6.60;;;;;;;8.65;76.98;97985.36;130309;1259;106208;-77
2024/02/23 01:23:32;;;;;;;8.50;5.70;;;;;;;8.61;76.96;97991.02;130290;1260;106626;-77
2024/02/23 01:26:38;;;;;;;8.20;5.60;;;;;;;8.59;77.13;97993.55;130157;1261;201515;-78
2024/02/23 01:29:43;;;;;;;10.00;6.10;;;;;;;8.61;77.28;97991.84;130286;1263;107920;-77
2024/02/23 01:32:50;;;;;;;8.80;6.20;;;;;;;8.66;77.46;97991.58;130314;1264;107681;-77
2024/02/23 01:35:58;;;;;;;7.60;5.60;;;;;;;8.72;77.30;97991.34;130334;1260;108581;-78
2024/02/23 01:39:03;;;;;;;7.70;5.90;;;;;;;8.76;77.27;97987.42;130340;1265;106727;-78
2024/02/23 01:42:10;;;;;;;7.80;5.90;;;;;;;8.78;77.24;97983.50;130323;1264;107414;-77
2024/02/23 01:45:16;;;;;;;7.10;5.70;;;;;;;8.79;77.23;97985.70;130335;1264;107482;-79
2024/02/23 01:48:22;;;;;;;8.00;6.10;;;;;;;8.78;77.28;97986.84;130321;1262;106606;-78
2024/02/23 01:51:28;;;;;;;7.90;5.90;;;;;;;8.77;77.33;97981.24;130304;1264;107737;-78
2024/02/23 01:54:35;;;;;;;7.40;5.90;;;;;;;8.77;77.43;97976.59;130295;1264;106887;-78
2024/02/23 01:57:41;;;;;;;8.50;6.30;;;;;;;8.75;77.41;97978.08;130351;1259;109142;-78
2024/02/23 02:00:47;;;;;;;7.50;5.30;;;;;;;8.72;77.33;97976.35;130278;1264;108696;-77
2024/02/23 02:03:53;;;;;;;7.80;5.00;;;;;;;8.70;77.52;97978.14;130364;1263;107574;-77
2024/02/23 02:07:00;;;;;;;7.30;5.40;;;;;;;8.72;77.52;97977.02;130328;1264;108757;-79
2024/02/23 02:10:10;;;;;;;8.30;5.50;;;;;;;8.75;77.76;97978.70;130440;1259;108677;-78
2024/02/23 02:13:16;;;;;;;9.70;5.70;;;;;;;8.81;77.58;97981.88;130277;1263;107670;-77
2024/02/23 02:16:21;;;;;;;6.20;4.80;;;;;;;8.85;77.59;97981.52;130300;1264;107590;-77
2024/02/23 02:19:27;;;;;;;7.60;5.30;;;;;;;8.88;77.82;97981.20;130317;1264;107679;-77
2024/02/23 02:22:34;;;;;;;6.80;5.10;;;;;;;8.88;77.77;97981.83;130260;1259;108397;-77
2024/02/23 02:25:40;;;;;;;6.90;5.00;;;;;;;8.88;77.67;97981.50;130309;1264;108577;-77
2024/02/23 02:28:46;;;;;;;6.90;5.10;;;;;;;8.87;77.78;97982.72;130238;1259;107516;-78
2024/02/23 02:31:51;;;;;;;8.00;5.40;;;;;;;8.85;77.76;97984.06;130320;1260;107635;-80
2024/02/23 02:34:57;;;;;;;6.50;4.60;;;;;;;8.83;78.03;97984.83;130024;1264;107208;-78
2024/02/23 02:38:03;;;;;;;6.00;4.20;;;;;;;8.83;78.13;97989.21;130109;1264;107622;-78
2024/02/23 02:41:09;;;;;;;7.00;5.00;;;;;;;8.85;78.36;97988.81;130507;1264;107223;-79
2024/02/23 02:44:15;;;;;;;6.50;4.60;;;;;;;8.88;78.28;97989.44;130592;1264;108795;-78
2024/02/23 02:47:20;;;;;;;5.80;4.30;;;;;;;8.93;78.36;97991.09;130353;1265;107706;-77
2024/02/23 02:50:26;;;;;;;7.10;4.70;;;;;;;8.98;78.55;97987.85;130343;1264;107547;-78
2024/02/23 02:53:31;;;;;;;5.50;4.40;;;;;;;9.00;78.39;97981.71;130325;1259;107209;-78
2024/02/23 02:56:37;;;;;;;6.30;4.80;;;;;;;9.00;78.65;97981.99;130331;1264;107472;-77
2024/02/23 02:59:44;;;;;;;6.90;5.00;;;;;;;9.00;78.82;97983.88;130353;1259;106892;-78
2024/02/23 03:02:49;;;;;;;6.70;4.80;;;;;;;8.98;78.74;97987.02;130293;1259;107539;-77
2024/02/23 03:05:55;;;;;;;6.50;4.70;;;;;;;8.97;78.82;97990.79;130049;1263;107741;-78
2024/02/23 03:09:01;;;;;;;8.30;4.00;;;;;;;8.96;79.11;97990.90;130489;1259;107988;-78
2024/02/23 03:12:07;;;;;;;6.00;4.40;;;;;;;8.97;79.28;97990.30;130274;1259;108762;-78
2024/02/23 03:15:13;;;;;;;6.90;4.40;;;;;;;9.01;79.27;97993.14;130382;1260;107983;-78
2024/02/23 03:18:19;;;;;;;6.30;4.60;;;;;;;9.06;79.61;97994.30;130319;1263;108679;-78
2024/02/23 03:21:24;;;;;;;6.10;4.60;;;;;;;9.08;79.80;97996.71;130316;1263;107840;-77
2024/02/23 03:24:30;;;;;;;7.20;4.60;;;;;;;9.08;79.80;98001.13;130314;1263;107513;-78
2024/02/23 03:27:37;;;;;;;7.10;4.70;;;;;;;9.07;79.84;98005.11;130275;1264;108163;-77
2024/02/23 03:30:42;;;;;;;6.10;4.40;;;;;;;9.07;80.16;98009.25;130435;1263;109042;-78
2024/02/23 03:33:48;;;;;;;5.70;4.20;;;;;;;9.08;80.32;98008.42;130260;1263;108568;-78
2024/02/23 03:36:53;;;;;;;28.10;11.40;;;;;;;9.10;80.26;98014.36;130646;1259;106261;-81
2024/02/23 03:39:59;;;;;;;9.70;6.40;;;;;;;9.15;80.48;98013.14;130582;1259;107703;-78
2024/02/23 03:43:05;;;;;;;46.40;24.60;;;;;;;9.18;80.47;98015.92;130200;1264;106757;-79
2024/02/23 03:46:11;;;;;;;10.90;7.00;;;;;;;9.22;80.47;98018.30;130540;1264;106955;-80
2024/02/23 03:49:17;;;;;;;11.10;6.60;;;;;;;9.22;80.50;98015.90;130710;1261;107824;-80
2024/02/23 03:52:22;;;;;;;8.30;5.50;;;;;;;9.22;80.75;98015.23;130440;1264;107676;-80
2024/02/23 03:55:28;;;;;;;16.30;8.30;;;;;;;9.23;80.87;98022.39;130472;1259;108673;-80
2024/02/23 03:58:34;;;;;;;12.10;6.40;;;;;;;9.24;80.92;98017.04;130963;1263;107518;-82
2024/02/23 04:01:40;;;;;;;10.50;5.80;;;;;;;9.29;81.20;98023.15;130802;1263;107733;-81
2024/02/23 04:04:45;;;;;;;15.80;8.50;;;;;;;9.33;81.28;98027.39;130662;1259;107090;-82
2024/02/23 04:07:51;;;;;;;12.00;6.50;;;;;;;9.36;81.41;98028.71;130525;1263;106806;-84
2024/02/23 04:10:56;;;;;;;8.40;5.40;;;;;;;9.37;81.49;98033.87;130657;1259;108369;-82
2024/02/23 04:14:05;;;;;;;15.80;7.70;;;;;;;9.34;81.88;98032.43;130747;1263;107947;-82
2024/02/23 04:17:11;;;;;;;7.60;5.60;;;;;;;9.32;82.31;98038.48;130552;1259;107831;-81
2024/02/23 04:20:17;;;;;;;8.90;5.00;;;;;;;9.29;82.97;98032.91;130639;1259;108838;-81
2024/02/23 04:23:22;;;;;;;7.70;5.30;;;;;;;9.31;82.81;98038.05;130625;1263;107990;-82
2024/02/23 04:26:28;;;;;;;23.50;12.20;;;;;;;9.32;82.94;98044.29;130537;1263;107623;-81
2024/02/23 04:29:33;;;;;;;12.00;7.60;;;;;;;9.31;83.38;98045.11;130615;1263;107721;-81
2024/02/23 04:32:39;;;;;;;10.70;6.30;;;;;;;9.27;83.97;98043.90;130583;1263;107744;-82
2024/02/23 04:35:45;;;;;;;8.80;5.40;;;;;;;9.22;83.86;98052.37;130419;1260;107112;-81
2024/02/23 04:38:50;;;;;;;8.90;5.20;;;;;;;9.19;84.01;98058.70;130456;1259;107473;-83
2024/02/23 04:41:56;;;;;;;12.70;6.90;;;;;;;9.19;84.42;98059.46;130552;1264;107672;-84
2024/02/23 04:45:01;;;;;;;8.80;5.80;;;;;;;9.20;84.72;98063.41;130551;1263;108735;-84
2024/02/23 04:48:08;;;;;;;8.90;6.40;;;;;;;9.19;84.79;98064.51;130517;1263;108684;-83
2024/02/23 04:51:14;;;;;;;8.20;5.80;;;;;;;9.16;85.18;98063.52;130548;1263;108729;-83
2024/02/23 04:54:19;;;;;;;9.40;6.40;;;;;;;9.12;85.20;98070.90;130594;1263;108665;-84
2024/02/23 04:57:25;;;;;;;8.00;5.40;;;;;;;9.08;85.27;98072.48;130546;1265;108442;-82
2024/02/23 05:00:33;;;;;;;6.70;4.90;;;;;;;9.02;85.83;98074.13;130546;1259;107411;-82
2024/02/23 05:03:39;;;;;;;9.20;5.60;;;;;;;9.02;85.95;98076.45;130580;1259;107536;-82
2024/02/23 05:06:44;;;;;;;63.70;33.00;;;;;;;9.03;85.58;98082.36;130607;1265;108096;-82
2024/02/23 05:09:50;;;;;;;17.70;9.70;;;;;;;9.06;85.72;98086.50;130519;1260;108541;-82
2024/02/23 05:12:56;;;;;;;11.50;7.20;;;;;;;9.04;85.97;98087.93;130569;1260;106400;-82
2024/02/23 05:16:01;;;;;;;12.40;7.90;;;;;;;9.01;86.37;98092.70;130518;1263;107143;-82
2024/02/23 05:19:07;;;;;;;17.60;11.40;;;;;;;8.99;86.39;98093.84;130430;1261;108536;-81
2024/02/23 05:22:13;;;;;;;8.80;5.40;;;;;;;8.98;87.08;98096.77;130491;1259;106792;-82
2024/02/23 05:25:18;;;;;;;17.00;11.90;;;;;;;8.95;87.02;98103.50;130449;1263;107538;-82
2024/02/23 05:28:24;;;;;;;13.70;11.50;;;;;;;8.95;86.92;98110.18;130537;1263;106910;-84
2024/02/23 05:31:47;;;;;;;10.90;8.60;;;;;;;8.95;86.98;98113.94;130483;1263;107673;-82
2024/02/23 05:34:54;;;;;;;14.70;10.70;;;;;;;8.94;87.23;98118.35;130531;1264;107017;-82
2024/02/23 05:37:59;;;;;;;9.40;6.80;;;;;;;8.89;87.09;98114.85;130498;1265;106551;-83
2024/02/23 05:41:06;;;;;;;7.80;5.60;;;;;;;8.86;87.33;98118.63;130469;1260;106864;-82
2024/02/23 05:44:13;;;;;;;6.70;5.00;;;;;;;8.83;87.53;98125.36;130477;1263;107663;-83
2024/02/23 05:47:18;;;;;;;7.90;5.40;;;;;;;8.84;87.42;98125.54;130539;1264;108475;-83
2024/02/23 05:50:24;;;;;;;7.50;5.90;;;;;;;8.85;87.67;98130.61;130516;1259;107529;-84
2024/02/23 05:53:32;;;;;;;6.80;5.50;;;;;;;8.86;87.84;98133.11;130600;1263;106392;-83
2024/02/23 05:56:38;;;;;;;6.70;5.20;;;;;;;8.84;87.66;98139.73;130702;1260;106633;-82
2024/02/23 05:59:44;;;;;;;8.80;5.60;;;;;;;8.82;87.90;98142.04;130480;1265;107704;-82
2024/02/23 06:02:49;;;;;;;7.20;4.80;;;;;;;8.78;87.61;98143.38;130481;1259;108785;-82
2024/02/23 06:05:55;;;;;;;7.20;4.80;;;;;;;8.77;87.91;98153.51;130531;1264;108399;-79
2024/02/23 06:09:02;;;;;;;7.20;5.60;;;;;;;8.76;88.36;98159.23;130490;1259;107284;-78
2024/02/23 06:12:09;;;;;;;7.90;5.40;;;;;;;8.75;88.35;98165.15;130280;1260;108482;-79
2024/02/23 06:15:16;;;;;;;8.50;6.00;;;;;;;8.77;88.27;98170.08;130297;1264;108633;-79
2024/02/23 06:18:21;;;;;;;8.00;4.90;;;;;;;8.76;88.37;98171.09;130223;1263;108646;-78
2024/02/23 06:21:27;;;;;;;7.80;5.70;;;;;;;8.74;88.57;98177.42;130268;1260;106286;-78
2024/02/23 06:24:33;;;;;;;8.50;6.50;;;;;;;8.74;88.69;98174.02;130290;1259;106858;-79
2024/02/23 06:27:39;;;;;;;12.20;8.50;;;;;;;8.75;88.66;98181.52;130281;1264;107686;-80
2024/02/23 06:30:45;;;;;;;9.50;6.40;;;;;;;8.76;88.73;98180.67;130313;1264;106869;-79
2024/02/23 06:33:51;;;;;;;8.60;6.30;;;;;;;8.76;89.01;98186.59;130295;1259;107390;-79
2024/02/23 06:36:57;;;;;;;9.70;5.80;;;;;;;8.73;89.18;98191.89;130267;1260;108716;-79
2024/02/23 06:40:04;;;;;;;6.90;5.30;;;;;;;8.71;89.22;98194.42;130299;1263;107072;-79
2024/02/23 06:43:09;;;;;;;10.10;7.00;;;;;;;8.73;89.22;98203.66;130514;1263;107744;-79
2024/02/23 06:46:15;;;;;;;8.90;6.20;;;;;;;8.78;89.42;98205.80;130530;1259;106267;-79
2024/02/23 06:49:21;;;;;;;8.30;6.50;;;;;;;8.81;89.34;98212.09;130474;1260;107232;-79
2024/02/23 06:52:27;;;;;;;9.20;6.50;;;;;;;8.82;89.80;98215.86;130534;1263;106794;-79
2024/02/23 06:55:34;;;;;;;8.50;6.00;;;;;;;8.82;89.60;98218.97;130514;1263;106837;-79
2024/02/23 06:58:39;;;;;;;8.00;5.80;;;;;;;8.82;89.62;98222.85;130541;1264;108485;-80
2024/02/23 07:01:52;;;;;;;9.20;6.10;;;;;;;8.86;89.81;98223.58;130502;1264;107517;-79
2024/02/23 07:04:59;;;;;;;8.50;6.20;;;;;;;8.92;89.88;98224.93;130521;1259;107054;-79
2024/02/23 07:08:05;;;;;;;8.30;6.30;;;;;;;8.97;90.05;98230.17;130499;1263;106708;-79
2024/02/23 07:11:11;;;;;;;9.20;7.10;;;;;;;9.00;89.80;98233.84;130524;1263;108468;-81
2024/02/23 07:14:17;;;;;;;9.10;6.00;;;;;;;9.00;89.91;98239.15;130500;1263;107780;-81
2024/02/23 07:17:23;;;;;;;9.90;7.00;;;;;;;9.01;90.16;98246.29;130522;1259;108464;-81
2024/02/23 07:20:28;;;;;;;11.60;8.10;;;;;;;9.05;90.37;98252.58;130498;1265;108796;-79
2024/02/23 07:23:34;;;;;;;15.50;10.50;;;;;;;9.08;90.39;98255.59;130514;1259;108684;-79
2024/02/23 07:26:39;;;;;;;23.90;16.20;;;;;;;9.13;90.29;98262.59;130539;1265;108748;-79
2024/02/23 07:29:45;;;;;;;12.30;9.30;;;;;;;9.19;90.28;98268.82;130494;1260;107047;-79
2024/02/23 07:32:51;;;;;;;9.30;7.00;;;;;;;9.19;90.46;98277.09;130478;1260;107713;-79
2024/02/23 07:35:56;;;;;;;11.40;7.00;;;;;;;9.17;90.43;98278.38;130475;1262;108512;-79
2024/02/23 07:39:03;;;;;;;12.30;7.80;;;;;;;9.18;90.48;98280.59;130499;1265;108782;-79
2024/02/23 07:42:10;;;;;;;13.40;8.80;;;;;;;9.23;90.60;98287.64;130527;1259;108531;-80
2024/02/23 07:45:16;;;;;;;14.00;10.00;;;;;;;9.27;90.70;98295.33;130540;1264;108260;-79
2024/02/23 07:48:22;;;;;;;19.30;11.30;;;;;;;9.29;90.46;98304.06;130464;1264;106535;-81
2024/02/23 07:51:27;;;;;;;24.60;14.30;;;;;;;9.29;90.78;98305.17;130498;1265;107766;-79
2024/02/23 07:54:33;;;;;;;58.70;28.70;;;;;;;9.31;90.90;98310.27;130528;1263;107930;-79
2024/02/23 07:57:39;;;;;;;102.80;51.10;;;;;;;9.37;91.24;98313.02;130268;1264;107924;-79
2024/02/23 08:00:46;;;;;;;55.70;30.70;;;;;;;9.42;91.25;98316.91;130270;1263;107038;-78
2024/02/23 08:03:52;;;;;;;39.80;24.90;;;;;;;9.49;91.07;98316.42;130277;1264;108719;-80
2024/02/23 08:06:57;;;;;;;41.30;25.30;;;;;;;9.56;91.23;98320.20;130292;1263;107724;-79
2024/02/23 08:10:04;;;;;;;17.20;10.90;;;;;;;9.62;91.33;98325.84;130258;1264;108211;-79
2024/02/23 08:13:10;;;;;;;12.50;8.10;;;;;;;9.67;91.10;98325.06;130276;1259;106281;-79
2024/02/23 08:16:18;;;;;;;12.30;8.30;;;;;;;9.72;91.40;98326.45;130294;1260;108783;-79
2024/02/23 08:19:23;;;;;;;11.90;8.50;;;;;;;9.81;91.49;98336.02;130299;1259;107768;-79
2024/02/23 08:22:29;;;;;;;11.50;8.60;;;;;;;9.89;91.35;98340.16;130280;1265;108646;-79
2024/02/23 08:25:34;;;;;;;13.30;9.90;;;;;;;9.93;91.57;98346.54;130292;1265;108726;-79
2024/02/23 08:28:40;;;;;;;10.30;7.30;;;;;;;9.95;91.16;98347.98;130225;1265;108561;-79
2024/02/23 08:31:46;;;;;;;10.30;7.40;;;;;;;9.96;91.14;98348.89;130240;1263;107673;-79
2024/02/23 08:34:52;;;;;;;10.20;7.40;;;;;;;9.97;91.32;98351.36;130252;1263;107102;-79
2024/02/23 08:37:58;;;;;;;9.10;6.80;;;;;;;10.00;91.57;98355.19;130317;1260;108083;-79
2024/02/23 08:41:05;;;;;;;9.80;7.20;;;;;;;10.07;91.78;98355.11;130265;1265;107750;-79
2024/02/23 08:44:10;;;;;;;11.20;7.80;;;;;;;10.14;91.87;98359.20;130233;1259;107413;-79
2024/02/23 08:47:16;;;;;;;9.00;6.60;;;;;;;10.25;91.91;98365.09;130367;1265;105459;-79
2024/02/23 08:50:22;;;;;;;9.50;6.20;;;;;;;10.34;91.91;98362.58;130291;1260;107518;-79
2024/02/23 08:53:27;;;;;;;10.00;7.20;;;;;;;10.41;91.86;98371.58;130157;1265;107617;-81
2024/02/23 08:56:37;;;;;;;8.30;6.50;;;;;;;10.49;91.68;98376.25;130486;1259;106931;-81
2024/02/23 08:59:42;;;;;;;9.80;7.10;;;;;;;10.56;91.21;98377.31;130507;1259;107672;-81
2024/02/23 09:02:50;;;;;;;7.80;6.10;;;;;;;10.58;91.36;98376.91;130490;1263;108375;-80
2024/02/23 09:05:55;;;;;;;8.90;7.00;;;;;;;10.58;91.31;98380.35;130487;1265;107619;-80
2024/02/23 09:09:01;;;;;;;8.80;6.40;;;;;;;10.61;91.27;98382.17;130527;1259;106631;-80
2024/02/23 09:12:10;;;;;;;8.00;6.50;;;;;;;10.67;91.56;98384.20;130257;1265;108536;-80
2024/02/23 09:15:16;;;;;;;10.90;8.50;;;;;;;10.73;91.14;98389.27;130285;1263;107629;-79
2024/02/23 09:18:21;;;;;;;7.70;6.30;;;;;;;10.82;91.32;98390.05;130245;1263;107630;-79
2024/02/23 09:21:27;;;;;;;13.00;10.40;;;;;;;10.89;91.15;98400.41;130229;1259;107114;-79
2024/02/23 09:24:33;;;;;;;9.80;6.90;;;;;;;10.94;91.69;98397.35;130250;1263;107741;-79
2024/02/23 09:27:43;;;;;;;14.70;10.30;;;;;;;11.02;91.43;98395.52;130273;1264;108040;-80
2024/02/23 09:30:49;;;;;;;34.90;22.60;;;;;;;11.08;91.38;98404.98;130248;1265;106904;-79
2024/02/23 09:33:55;;;;;;;21.80;13.30;;;;;;;11.14;91.49;98407.09;130308;1263;108626;-80
2024/02/23 09:37:00;;;;;;;103.80;66.40;;;;;;;11.16;91.32;98411.06;130322;1263;108681;-80
2024/02/23 09:40:08;;;;;;;41.50;28.00;;;;;;;11.13;91.29;98416.61;130296;1265;108861;-79
2024/02/23 09:43:15;;;;;;;106.70;72.90;;;;;;;11.14;91.43;98416.49;130248;1263;106460;-79
2024/02/23 09:46:21;;;;;;;25.70;17.20;;;;;;;11.14;91.40;98415.70;130214;1263;108653;-79
2024/02/23 09:49:27;;;;;;;12.70;9.50;;;;;;;11.19;91.41;98421.91;130232;1264;108749;-79
2024/02/23 09:52:34;;;;;;;22.60;15.40;;;;;;;11.22;91.37;98430.77;130238;1265;107819;-79
2024/02/23 09:55:40;;;;;;;12.20;8.20;;;;;;;11.24;91.30;98429.48;130186;1273;107530;-79
2024/02/23 09:58:47;;;;;;;14.20;10.40;;;;;;;11.24;91.33;98433.55;130173;1264;107647;-79
2024/02/23 10:01:53;;;;;;;11.50;7.90;;;;;;;11.24;91.21;98434.54;130318;1259;109414;-78
2024/02/23 10:05:01;;;;;;;8.10;6.70;;;;;;;11.28;91.46;98434.92;130195;1259;105865;-79
2024/02/23 10:08:07;;;;;;;15.70;13.00;;;;;;;11.31;91.11;98444.86;130231;1259;106792;-79
2024/02/23 10:11:13;;;;;;;8.60;6.90;;;;;;;11.33;91.29;98450.33;130244;1262;106330;-79
2024/02/23 10:14:18;;;;;;;9.10;6.90;;;;;;;11.33;91.09;98452.09;130214;1265;107534;-80
2024/02/23 10:17:24;;;;;;;7.60;6.20;;;;;;;11.29;90.97;98459.20;130273;1263;107645;-79
2024/02/23 10:20:31;;;;;;;7.60;5.20;;;;;;;11.25;91.12;98460.66;130273;1273;107446;-79
2024/02/23 10:23:37;;;;;;;6.70;4.90;;;;;;;11.21;91.05;98468.61;130280;1263;108717;-79
2024/02/23 10:26:42;;;;;;;8.80;6.20;;;;;;;11.14;90.83;98472.55;130283;1274;107839;-79
2024/02/23 10:29:51;;;;;;;14.20;9.00;;;;;;;11.09;90.89;98474.83;130293;1259;108507;-79
2024/02/23 10:32:58;;;;;;;13.30;8.10;;;;;;;11.06;91.02;98488.36;130366;1265;107647;-79
2024/02/23 10:36:08;;;;;;;8.50;7.10;;;;;;;11.05;90.98;98491.60;130332;1264;108570;-79
2024/02/23 10:39:18;;;;;;;9.90;6.50;;;;;;;11.02;90.96;98495.16;130318;1265;108630;-79
2024/02/23 10:42:32;;;;;;;7.60;6.00;;;;;;;10.96;91.24;98493.88;130305;1265;107941;-79
2024/02/23 10:45:39;;;;;;;9.50;7.10;;;;;;;10.98;90.99;98499.14;130289;1264;107780;-78
2024/02/23 10:48:45;;;;;;;7.90;5.90;;;;;;;11.04;91.39;98502.06;130286;1265;108583;-79
2024/02/23 10:51:52;;;;;;;8.80;5.90;;;;;;;11.07;91.12;98512.11;130267;1265;108507;-79
2024/02/23 10:54:58;;;;;;;7.40;5.60;;;;;;;11.10;91.40;98511.21;130358;1265;108660;-79
2024/02/23 10:58:07;;;;;;;8.00;6.40;;;;;;;11.13;91.59;98511.67;130257;1266;108784;-79
2024/02/23 11:01:15;;;;;;;7.40;5.40;;;;;;;11.13;91.53;98515.05;130251;1259;108722;-79
2024/02/23 11:04:22;;;;;;;7.60;5.80;;;;;;;11.18;91.78;98520.23;130242;1259;109461;-79
2024/02/23 11:07:30;;;;;;;10.40;5.80;;;;;;;11.29;92.01;98522.05;130287;1263;108369;-79
2024/02/23 11:10:44;;;;;;;8.50;6.30;;;;;;;11.43;91.79;98521.47;130223;1262;109497;-80
2024/02/23 11:13:49;;;;;;;8.50;6.00;;;;;;;11.50;91.48;98525.84;130342;1263;108663;-80
2024/02/23 11:16:55;;;;;;;9.70;7.10;;;;;;;11.51;91.60;98529.09;130251;1263;106843;-79
2024/02/23 11:20:05;;;;;;;8.70;6.40;;;;;;;11.51;91.37;98533.45;130251;1265;108511;-79
2024/02/23 11:23:17;;;;;;;8.10;6.00;;;;;;;11.49;91.38;98535.45;130237;1265;108687;-79
2024/02/23 11:26:27;;;;;;;9.10;5.90;;;;;;;11.56;91.77;98539.14;130413;1265;107751;-79
2024/02/23 11:29:34;;;;;;;9.30;6.50;;;;;;;11.67;91.47;98546.48;130276;1263;106558;-79
2024/02/23 11:32:42;;;;;;;9.30;6.40;;;;;;;11.73;91.47;98548.84;130253;1263;108290;-79
2024/02/23 11:35:51;;;;;;;32.40;19.80;;;;;;;11.76;91.41;98553.83;130289;1261;108186;-79
2024/02/23 11:39:00;;;;;;;14.20;9.50;;;;;;;11.75;91.38;98558.01;130275;1265;108702;-79
2024/02/23 11:42:06;;;;;;;79.80;49.70;;;;;;;11.75;91.42;98556.81;130299;1264;108618;-79
2024/02/23 11:45:12;;;;;;;19.70;14.40;;;;;;;11.78;91.40;98560.11;130194;1265;107761;-79
2024/02/23 11:48:18;;;;;;;12.50;8.70;;;;;;;11.82;91.39;98560.20;130534;1264;108049;-79
2024/02/23 11:51:29;;;;;;;35.00;22.50;;;;;;;11.86;91.22;98563.58;130313;1260;107421;-79
2024/02/23 11:54:34;;;;;;;13.00;8.50;;;;;;;11.85;91.36;98567.81;130239;1263;107473;-79
2024/02/23 11:57:40;;;;;;;11.50;7.10;;;;;;;11.83;91.30;98571.67;130287;1263;107105;-80
2024/02/23 12:00:46;;;;;;;9.20;6.10;;;;;;;11.81;91.27;98576.30;130267;1264;106846;-79
2024/02/23 12:03:52;;;;;;;8.20;5.70;;;;;;;11.81;91.25;98583.05;130244;1269;108499;-79
2024/02/23 12:06:58;;;;;;;12.30;8.00;;;;;;;11.87;91.17;98586.20;130363;1266;107563;-79
2024/02/23 12:10:06;;;;;;;12.40;8.10;;;;;;;11.91;91.21;98593.59;130328;1264;107634;-79
2024/02/23 12:13:13;;;;;;;9.20;6.40;;;;;;;11.91;91.31;98601.89;130291;1264;107405;-79
2024/02/23 12:16:18;;;;;;;11.50;7.40;;;;;;;11.92;91.12;98602.40;130334;1259;106988;-81
2024/02/23 12:19:24;;;;;;;8.30;6.10;;;;;;;11.86;91.10;98601.85;130289;1264;108539;-79
2024/02/23 12:22:30;;;;;;;8.80;5.80;;;;;;;11.84;90.99;98601.61;130274;1259;108561;-79
2024/02/23 12:25:36;;;;;;;8.00;6.10;;;;;;;11.82;91.22;98597.58;130219;1261;108603;-79
2024/02/23 12:28:41;;;;;;;9.60;6.10;;;;;;;11.89;91.45;98602.73;130380;1263;106822;-79
2024/02/23 12:31:47;;;;;;;7.90;6.30;;;;;;;11.96;91.42;98607.87;130270;1260;108658;-79
2024/02/23 12:34:54;;;;;;;8.90;6.60;;;;;;;12.01;91.44;98610.66;130235;1264;107395;-80
2024/02/23 12:38:00;;;;;;;7.50;6.30;;;;;;;12.03;91.18;98610.73;130203;1264;108647;-79
2024/02/23 12:41:07;;;;;;;7.60;6.30;;;;;;;12.04;91.28;98617.01;130218;1273;108604;-79
2024/02/23 12:44:13;;;;;;;8.30;6.50;;;;;;;12.05;91.42;98618.95;130213;1264;106555;-79
2024/02/23 12:47:18;;;;;;;9.30;6.50;;;;;;;12.09;91.47;98612.20;130259;1264;109390;-80
2024/02/23 12:50:25;;;;;;;9.70;6.60;;;;;;;12.13;91.34;98616.16;130325;1264;107050;-79
2024/02/23 12:53:35;;;;;;;9.80;6.90;;;;;;;12.16;91.35;98617.35;130200;1273;107123;-79
2024/02/23 12:56:42;;;;;;;9.50;7.10;;;;;;;12.19;91.45;98620.95;130232;1265;107695;-79
2024/02/23 12:59:48;;;;;;;9.30;7.30;;;;;;;12.22;91.33;98628.23;130176;1265;107747;-80
2024/02/23 13:02:53;;;;;;;9.30;6.80;;;;;;;12.22;91.22;98630.37;130193;1273;106835;-80
2024/02/23 13:06:00;;;;;;;10.60;7.70;;;;;;;12.20;91.29;98634.65;130259;1263;107075;-79
2024/02/23 13:09:07;;;;;;;12.40;8.70;;;;;;;12.20;91.28;98633.58;130504;1263;106781;-79
2024/02/23 13:12:13;;;;;;;16.00;12.70;;;;;;;12.19;91.36;98635.70;130380;1273;108930;-79
2024/02/23 13:15:19;;;;;;;13.20;9.90;;;;;;;12.18;91.08;98638.60;130247;1265;108546;-80
2024/02/23 13:18:24;;;;;;;11.30;8.90;;;;;;;12.15;91.18;98639.17;130252;1263;107581;-79
2024/02/23 13:21:32;;;;;;;12.70;8.80;;;;;;;12.11;91.33;98648.70;130268;1264;107802;-80
2024/02/23 13:24:40;;;;;;;12.30;7.60;;;;;;;12.07;91.18;98658.29;130255;1265;106529;-79
2024/02/23 13:27:45;;;;;;;14.90;10.10;;;;;;;12.05;91.25;98665.85;130421;1259;216218;-81
2024/02/23 13:30:51;;;;;;;12.50;9.20;;;;;;;12.05;91.32;98666.88;130480;1263;107686;-80
2024/02/23 13:33:56;;;;;;;12.80;8.90;;;;;;;12.03;91.21;98662.54;130500;1263;107963;-81
2024/02/23 13:37:02;;;;;;;13.20;8.90;;;;;;;12.00;91.12;98665.16;130520;1263;106886;-81
2024/02/23 13:40:10;;;;;;;15.30;11.80;;;;;;;11.95;91.07;98665.02;130522;1266;107731;-81
2024/02/23 13:43:16;;;;;;;11.20;8.10;;;;;;;11.88;90.95;98665.40;130508;1263;107048;-80
2024/02/23 13:46:21;;;;;;;9.30;7.10;;;;;;;11.82;91.10;98665.16;130493;1264;108363;-81
2024/02/23 13:49:27;;;;;;;10.80;7.30;;;;;;;11.77;91.26;98676.16;130480;1262;107700;-80
2024/02/23 13:52:32;;;;;;;11.30;7.80;;;;;;;11.76;91.19;98680.27;130442;1261;108467;-80
2024/02/23 13:55:38;;;;;;;9.90;7.70;;;;;;;11.76;91.29;98689.19;130504;1273;107688;-81
2024/02/23 13:58:44;;;;;;;12.50;8.00;;;;;;;11.74;91.20;98686.92;130545;1263;108755;-80
2024/02/23 14:01:50;;;;;;;11.50;8.00;;;;;;;11.73;91.04;98679.89;130418;1272;108524;-81
2024/02/23 14:04:56;;;;;;;8.30;6.40;;;;;;;11.69;91.00;98674.20;130467;1265;107546;-81
2024/02/23 14:08:01;;;;;;;10.40;6.90;;;;;;;11.65;91.02;98674.01;130405;1264;108237;-81
2024/02/23 14:11:07;;;;;;;8.80;6.90;;;;;;;11.64;91.24;98679.77;130525;1265;106913;-80
2024/02/23 14:14:13;;;;;;;10.50;8.10;;;;;;;11.61;91.33;98687.80;130524;1263;107276;-80
2024/02/23 14:17:19;;;;;;;11.00;8.10;;;;;;;11.57;91.19;98689.52;130537;1264;108037;-81